Buffalo, NY (14218)

7:26 PM EST on December 02, 2016 (GMT -0500)
West Seneca I-90/400 | | Change Station

Elev 600 ft 42.84 °N, 78.78 °W | Updated 4 seconds ago

Overcast
Overcast
39.4 °F
Feels Like 34 °F
N
8.3
Wind Variable Wind from West
Gusts 13.6 mph

Today
High -- | Low -- °F
--% Chance of Precip.
Yesterday
High -- | Low -- °F
Precip. -- in
Pressure 29.97 in
Visibility 4.0 miles
Clouds Few 900 ft
Mostly Cloudy 1600 ft
Overcast 2100 ft
Windchill 34 °F
Dew Point 35 °F
Humidity 84%
Rainfall 0.00 in
Snow Depth Not available.
7:27 AM 4:41 PM
Waxing Crescent, 11% visible
SPECI KBUF 030003Z 28017G25KT 4SM -RASN FEW009 BKN016 OVC021 03/M01 A2997 RMK AO2 SNB02 P0000 T00281006
Pressure 29.97 in
Visibility 4.0 miles
Clouds Few 900 ft
Mostly Cloudy 1600 ft
Overcast 2100 ft
Windchill 34 °F
Dew Point 35 °F
Humidity 84%
Rainfall 0.00 in
Snow Depth Not available.
7:27 AM 4:41 PM
Waxing Crescent, 11% visible
SPECI KBUF 030003Z 28017G25KT 4SM -RASN FEW009 BKN016 OVC021 03/M01 A2997 RMK AO2 SNB02 P0000 T00281006

10-Day Weather Forecast

Almanac

Astronomy

Dec. 02, 2016 Rise Set
Actual Time
Civil Twilight
Nautical Twilight
Astronomical Twilight
Moon
Length of Visible Light
Length of Day
Tomorrow will be .
, % of the Moon is Illuminated

Today's Extremes

State Highs State Lows

Community

WunderPhotos

Upload Photos

1,955,380 photos uploaded!

WunderBlog® & News

Nearby

Air Quality

  Air Quality AQ Index Pollutant
Not available.

Snow Depth

Station Depth Elevation

Earthquake Activity

City Distance Mag. Time & Date
Minimum magnitude displayed is 2.5.

Coastal Water Temperatures

Place Temperature

Stations

Nearby Weather Stations

Station Location Temp. Windchill Dew Point Humidity Wind Precip. Elev Updated Type
                   

Watches & Warnings

There are currently no watches in effect.